sensor_id;sensor_type;location;lat;lon;timestamp;P1;durP1;ratioP1;P2;durP2;ratioP2
9392;SDS011;4736;52.508;13.422;2023-03-24T00:03:02;5.43;;;5.20;;
9392;SDS011;4736;52.508;13.422;2023-03-24T00:06:06;6.03;;;5.60;;
9392;SDS011;4736;52.508;13.422;2023-03-24T00:09:15;5.73;;;5.27;;
9392;SDS011;4736;52.508;13.422;2023-03-24T00:12:20;5.40;;;5.20;;
9392;SDS011;4736;52.508;13.422;2023-03-24T00:15:24;4.57;;;4.47;;
9392;SDS011;4736;52.508;13.422;2023-03-24T00:18:28;5.17;;;4.97;;
9392;SDS011;4736;52.508;13.422;2023-03-24T00:21:32;5.30;;;5.00;;
9392;SDS011;4736;52.508;13.422;2023-03-24T00:24:37;5.20;;;4.70;;
9392;SDS011;4736;52.508;13.422;2023-03-24T00:27:42;4.87;;;4.77;;
9392;SDS011;4736;52.508;13.422;2023-03-24T00:30:50;5.43;;;5.13;;
9392;SDS011;4736;52.508;13.422;2023-03-24T00:33:53;5.30;;;5.10;;
9392;SDS011;4736;52.508;13.422;2023-03-24T00:36:57;4.97;;;4.87;;
9392;SDS011;4736;52.508;13.422;2023-03-24T00:40:00;5.07;;;4.93;;
9392;SDS011;4736;52.508;13.422;2023-03-24T00:43:08;5.10;;;5.00;;
9392;SDS011;4736;52.508;13.422;2023-03-24T00:46:14;5.03;;;4.83;;
9392;SDS011;4736;52.508;13.422;2023-03-24T00:49:28;4.93;;;4.77;;
9392;SDS011;4736;52.508;13.422;2023-03-24T00:52:43;5.10;;;4.90;;
9392;SDS011;4736;52.508;13.422;2023-03-24T00:55:48;5.07;;;4.67;;
9392;SDS011;4736;52.508;13.422;2023-03-24T00:58:53;4.90;;;4.80;;
9392;SDS011;4736;52.508;13.422;2023-03-24T01:01:58;4.90;;;4.50;;
9392;SDS011;4736;52.508;13.422;2023-03-24T01:05:01;4.70;;;4.40;;
9392;SDS011;4736;52.508;13.422;2023-03-24T01:08:05;4.70;;;4.60;;
9392;SDS011;4736;52.508;13.422;2023-03-24T01:11:09;4.83;;;4.43;;
9392;SDS011;4736;52.508;13.422;2023-03-24T01:14:14;6.10;;;4.87;;
9392;SDS011;4736;52.508;13.422;2023-03-24T01:17:19;5.23;;;4.80;;
9392;SDS011;4736;52.508;13.422;2023-03-24T01:20:25;5.07;;;4.87;;
9392;SDS011;4736;52.508;13.422;2023-03-24T01:23:33;4.63;;;4.40;;
9392;SDS011;4736;52.508;13.422;2023-03-24T01:26:37;4.93;;;4.73;;
9392;SDS011;4736;52.508;13.422;2023-03-24T01:29:41;4.63;;;4.43;;
9392;SDS011;4736;52.508;13.422;2023-03-24T01:32:45;5.27;;;5.07;;
9392;SDS011;4736;52.508;13.422;2023-03-24T01:35:48;5.93;;;5.53;;
9392;SDS011;4736;52.508;13.422;2023-03-24T01:38:52;5.80;;;5.40;;
9392;SDS011;4736;52.508;13.422;2023-03-24T01:41:58;5.43;;;5.23;;
9392;SDS011;4736;52.508;13.422;2023-03-24T01:48:46;4.80;;;4.60;;
9392;SDS011;4736;52.508;13.422;2023-03-24T01:51:53;4.87;;;4.77;;
9392;SDS011;4736;52.508;13.422;2023-03-24T01:54:59;7.20;;;6.73;;
9392;SDS011;4736;52.508;13.422;2023-03-24T01:58:08;5.10;;;4.90;;
9392;SDS011;4736;52.508;13.422;2023-03-24T02:01:13;4.73;;;4.47;;
9392;SDS011;4736;52.508;13.422;2023-03-24T02:04:17;5.40;;;5.00;;
9392;SDS011;4736;52.508;13.422;2023-03-24T02:07:24;5.33;;;4.57;;
9392;SDS011;4736;52.508;13.422;2023-03-24T02:10:33;4.30;;;4.20;;
9392;SDS011;4736;52.508;13.422;2023-03-24T02:13:38;4.30;;;4.20;;
9392;SDS011;4736;52.508;13.422;2023-03-24T02:16:52;4.63;;;4.47;;
9392;SDS011;4736;52.508;13.422;2023-03-24T02:27:44;4.37;;;4.10;;
9392;SDS011;4736;52.508;13.422;2023-03-24T02:31:14;4.23;;;4.13;;
9392;SDS011;4736;52.508;13.422;2023-03-24T02:34:41;4.00;;;3.90;;
9392;SDS011;4736;52.508;13.422;2023-03-24T02:38:07;4.30;;;4.03;;
9392;SDS011;4736;52.508;13.422;2023-03-24T02:41:22;4.37;;;4.20;;
9392;SDS011;4736;52.508;13.422;2023-03-24T02:44:34;4.53;;;4.33;;
9392;SDS011;4736;52.508;13.422;2023-03-24T02:47:46;3.97;;;3.83;;
9392;SDS011;4736;52.508;13.422;2023-03-24T02:51:00;4.30;;;4.17;;
9392;SDS011;4736;52.508;13.422;2023-03-24T02:54:10;4.20;;;4.10;;
9392;SDS011;4736;52.508;13.422;2023-03-24T02:57:20;4.20;;;4.10;;
9392;SDS011;4736;52.508;13.422;2023-03-24T03:00:30;4.40;;;4.20;;
9392;SDS011;4736;52.508;13.422;2023-03-24T03:03:37;5.10;;;4.57;;
9392;SDS011;4736;52.508;13.422;2023-03-24T03:06:45;4.53;;;4.33;;
9392;SDS011;4736;52.508;13.422;2023-03-24T03:09:54;4.37;;;4.03;;
9392;SDS011;4736;52.508;13.422;2023-03-24T03:13:05;4.30;;;4.10;;
9392;SDS011;4736;52.508;13.422;2023-03-24T03:16:13;4.70;;;4.30;;
9392;SDS011;4736;52.508;13.422;2023-03-24T03:19:22;4.03;;;3.87;;
9392;SDS011;4736;52.508;13.422;2023-03-24T03:22:30;5.23;;;4.70;;
9392;SDS011;4736;52.508;13.422;2023-03-24T03:25:40;4.60;;;4.43;;
9392;SDS011;4736;52.508;13.422;2023-03-24T03:28:52;4.10;;;4.00;;
9392;SDS011;4736;52.508;13.422;2023-03-24T03:32:01;4.70;;;4.40;;
9392;SDS011;4736;52.508;13.422;2023-03-24T03:35:08;4.43;;;4.23;;
9392;SDS011;4736;52.508;13.422;2023-03-24T03:38:21;5.27;;;5.03;;
9392;SDS011;4736;52.508;13.422;2023-03-24T03:41:30;5.13;;;4.80;;
9392;SDS011;4736;52.508;13.422;2023-03-24T03:44:34;5.10;;;4.80;;
9392;SDS011;4736;52.508;13.422;2023-03-24T03:47:38;5.03;;;4.53;;
9392;SDS011;4736;52.508;13.422;2023-03-24T03:50:42;5.13;;;4.77;;
9392;SDS011;4736;52.508;13.422;2023-03-24T03:53:46;4.57;;;4.37;;
9392;SDS011;4736;52.508;13.422;2023-03-24T03:56:52;4.90;;;4.57;;
9392;SDS011;4736;52.508;13.422;2023-03-24T03:59:59;4.77;;;4.63;;
9392;SDS011;4736;52.508;13.422;2023-03-24T04:03:15;5.03;;;4.80;;
9392;SDS011;4736;52.508;13.422;2023-03-24T04:06:36;5.67;;;5.27;;
9392;SDS011;4736;52.508;13.422;2023-03-24T04:09:47;5.37;;;5.17;;
9392;SDS011;4736;52.508;13.422;2023-03-24T04:13:05;5.03;;;4.83;;
9392;SDS011;4736;52.508;13.422;2023-03-24T04:16:18;5.67;;;5.37;;
9392;SDS011;4736;52.508;13.422;2023-03-24T04:19:31;5.60;;;5.00;;
9392;SDS011;4736;52.508;13.422;2023-03-24T04:22:50;5.70;;;5.33;;
9392;SDS011;4736;52.508;13.422;2023-03-24T04:26:03;5.40;;;5.10;;
9392;SDS011;4736;52.508;13.422;2023-03-24T04:29:17;6.13;;;5.67;;
9392;SDS011;4736;52.508;13.422;2023-03-24T04:32:30;5.23;;;5.00;;
9392;SDS011;4736;52.508;13.422;2023-03-24T04:35:39;5.80;;;5.60;;
9392;SDS011;4736;52.508;13.422;2023-03-24T04:38:46;6.13;;;5.83;;
9392;SDS011;4736;52.508;13.422;2023-03-24T04:41:53;6.60;;;6.20;;
9392;SDS011;4736;52.508;13.422;2023-03-24T04:44:59;6.20;;;5.73;;
9392;SDS011;4736;52.508;13.422;2023-03-24T04:48:08;6.40;;;6.10;;
9392;SDS011;4736;52.508;13.422;2023-03-24T04:51:14;6.77;;;6.47;;
9392;SDS011;4736;52.508;13.422;2023-03-24T04:54:21;6.07;;;5.70;;
9392;SDS011;4736;52.508;13.422;2023-03-24T04:57:24;6.70;;;6.30;;
9392;SDS011;4736;52.508;13.422;2023-03-24T05:00:29;6.60;;;6.10;;
9392;SDS011;4736;52.508;13.422;2023-03-24T05:03:33;6.80;;;6.40;;
9392;SDS011;4736;52.508;13.422;2023-03-24T05:06:38;6.27;;;5.97;;
9392;SDS011;4736;52.508;13.422;2023-03-24T05:09:42;7.03;;;6.53;;
9392;SDS011;4736;52.508;13.422;2023-03-24T05:12:45;6.80;;;6.40;;
9392;SDS011;4736;52.508;13.422;2023-03-24T05:15:48;7.47;;;6.97;;
9392;SDS011;4736;52.508;13.422;2023-03-24T05:18:54;6.57;;;6.30;;
9392;SDS011;4736;52.508;13.422;2023-03-24T05:21:58;7.07;;;6.60;;
9392;SDS011;4736;52.508;13.422;2023-03-24T05:25:01;7.30;;;6.73;;
9392;SDS011;4736;52.508;13.422;2023-03-24T05:28:04;7.73;;;6.27;;
9392;SDS011;4736;52.508;13.422;2023-03-24T05:31:08;6.80;;;6.40;;
9392;SDS011;4736;52.508;13.422;2023-03-24T05:34:13;6.43;;;6.03;;
9392;SDS011;4736;52.508;13.422;2023-03-24T05:37:16;6.43;;;6.13;;
9392;SDS011;4736;52.508;13.422;2023-03-24T05:40:19;6.60;;;6.10;;
9392;SDS011;4736;52.508;13.422;2023-03-24T05:43:22;6.67;;;6.33;;
9392;SDS011;4736;52.508;13.422;2023-03-24T05:46:25;6.40;;;6.10;;
9392;SDS011;4736;52.508;13.422;2023-03-24T05:49:30;6.20;;;6.00;;
9392;SDS011;4736;52.508;13.422;2023-03-24T05:52:33;6.57;;;6.10;;
9392;SDS011;4736;52.508;13.422;2023-03-24T05:55:37;6.67;;;6.30;;
9392;SDS011;4736;52.508;13.422;2023-03-24T05:58:40;6.43;;;6.07;;
9392;SDS011;4736;52.508;13.422;2023-03-24T06:01:45;6.43;;;6.03;;
9392;SDS011;4736;52.508;13.422;2023-03-24T06:04:50;6.60;;;6.13;;
9392;SDS011;4736;52.508;13.422;2023-03-24T06:07:53;6.87;;;6.33;;
9392;SDS011;4736;52.508;13.422;2023-03-24T06:10:58;5.90;;;5.60;;
9392;SDS011;4736;52.508;13.422;2023-03-24T06:14:02;7.00;;;6.10;;
9392;SDS011;4736;52.508;13.422;2023-03-24T06:17:07;6.20;;;5.87;;
9392;SDS011;4736;52.508;13.422;2023-03-24T06:20:16;6.40;;;6.00;;
9392;SDS011;4736;52.508;13.422;2023-03-24T06:23:19;6.37;;;6.03;;
9392;SDS011;4736;52.508;13.422;2023-03-24T06:26:24;7.23;;;6.67;;
9392;SDS011;4736;52.508;13.422;2023-03-24T06:29:30;6.17;;;5.77;;
9392;SDS011;4736;52.508;13.422;2023-03-24T06:32:34;5.60;;;5.23;;
9392;SDS011;4736;52.508;13.422;2023-03-24T06:35:40;6.27;;;5.87;;
9392;SDS011;4736;52.508;13.422;2023-03-24T06:38:44;6.30;;;6.00;;
9392;SDS011;4736;52.508;13.422;2023-03-24T06:41:47;6.53;;;6.13;;
9392;SDS011;4736;52.508;13.422;2023-03-24T06:44:50;6.50;;;6.17;;
9392;SDS011;4736;52.508;13.422;2023-03-24T06:47:53;5.53;;;5.33;;
9392;SDS011;4736;52.508;13.422;2023-03-24T06:50:58;5.87;;;5.57;;
9392;SDS011;4736;52.508;13.422;2023-03-24T06:54:02;5.50;;;5.20;;
9392;SDS011;4736;52.508;13.422;2023-03-24T06:57:05;5.80;;;5.60;;
9392;SDS011;4736;52.508;13.422;2023-03-24T07:00:08;5.70;;;5.40;;
9392;SDS011;4736;52.508;13.422;2023-03-24T07:03:13;6.10;;;5.83;;
9392;SDS011;4736;52.508;13.422;2023-03-24T07:06:21;6.17;;;5.63;;
9392;SDS011;4736;52.508;13.422;2023-03-24T07:09:24;5.73;;;5.23;;
9392;SDS011;4736;52.508;13.422;2023-03-24T07:12:27;6.57;;;6.17;;
9392;SDS011;4736;52.508;13.422;2023-03-24T07:15:31;6.43;;;6.10;;
9392;SDS011;4736;52.508;13.422;2023-03-24T07:18:35;6.30;;;5.80;;
9392;SDS011;4736;52.508;13.422;2023-03-24T07:21:39;6.53;;;5.53;;
9392;SDS011;4736;52.508;13.422;2023-03-24T07:24:42;5.90;;;5.60;;
9392;SDS011;4736;52.508;13.422;2023-03-24T07:27:45;5.47;;;5.20;;
9392;SDS011;4736;52.508;13.422;2023-03-24T07:30:49;5.60;;;5.40;;
9392;SDS011;4736;52.508;13.422;2023-03-24T07:33:55;6.10;;;5.57;;
9392;SDS011;4736;52.508;13.422;2023-03-24T07:37:03;6.07;;;5.70;;
9392;SDS011;4736;52.508;13.422;2023-03-24T07:40:07;6.20;;;5.90;;
9392;SDS011;4736;52.508;13.422;2023-03-24T07:43:12;5.20;;;5.00;;
9392;SDS011;4736;52.508;13.422;2023-03-24T07:46:16;5.50;;;5.20;;
9392;SDS011;4736;52.508;13.422;2023-03-24T07:49:19;5.30;;;5.10;;
9392;SDS011;4736;52.508;13.422;2023-03-24T07:52:23;5.37;;;5.07;;
9392;SDS011;4736;52.508;13.422;2023-03-24T07:55:27;5.03;;;4.73;;
9392;SDS011;4736;52.508;13.422;2023-03-24T07:58:30;4.97;;;4.77;;
9392;SDS011;4736;52.508;13.422;2023-03-24T08:01:33;5.53;;;4.97;;
9392;SDS011;4736;52.508;13.422;2023-03-24T08:04:38;6.03;;;5.67;;
9392;SDS011;4736;52.508;13.422;2023-03-24T08:07:46;5.83;;;5.40;;
9392;SDS011;4736;52.508;13.422;2023-03-24T08:10:53;5.40;;;5.20;;
9392;SDS011;4736;52.508;13.422;2023-03-24T08:13:56;6.20;;;5.80;;
9392;SDS011;4736;52.508;13.422;2023-03-24T08:17:00;6.00;;;5.60;;
9392;SDS011;4736;52.508;13.422;2023-03-24T08:20:03;5.30;;;5.10;;
9392;SDS011;4736;52.508;13.422;2023-03-24T08:23:16;5.70;;;5.40;;
9392;SDS011;4736;52.508;13.422;2023-03-24T08:26:19;6.00;;;5.60;;
9392;SDS011;4736;52.508;13.422;2023-03-24T08:29:27;5.80;;;5.50;;
9392;SDS011;4736;52.508;13.422;2023-03-24T08:32:30;6.23;;;5.73;;
9392;SDS011;4736;52.508;13.422;2023-03-24T08:35:34;7.60;;;6.50;;
9392;SDS011;4736;52.508;13.422;2023-03-24T08:38:41;6.27;;;5.77;;
9392;SDS011;4736;52.508;13.422;2023-03-24T08:41:44;6.10;;;5.70;;
9392;SDS011;4736;52.508;13.422;2023-03-24T08:44:50;6.60;;;6.20;;
9392;SDS011;4736;52.508;13.422;2023-03-24T08:47:54;7.00;;;6.60;;
9392;SDS011;4736;52.508;13.422;2023-03-24T08:50:58;7.17;;;6.70;;
9392;SDS011;4736;52.508;13.422;2023-03-24T08:54:03;6.33;;;6.03;;
9392;SDS011;4736;52.508;13.422;2023-03-24T08:57:06;6.57;;;6.10;;
9392;SDS011;4736;52.508;13.422;2023-03-24T09:00:10;5.63;;;5.30;;
9392;SDS011;4736;52.508;13.422;2023-03-24T09:03:16;6.43;;;6.03;;
9392;SDS011;4736;52.508;13.422;2023-03-24T09:06:24;6.07;;;5.77;;
9392;SDS011;4736;52.508;13.422;2023-03-24T09:09:31;5.27;;;5.07;;
9392;SDS011;4736;52.508;13.422;2023-03-24T09:12:35;6.23;;;5.93;;
9392;SDS011;4736;52.508;13.422;2023-03-24T09:15:38;5.80;;;5.50;;
9392;SDS011;4736;52.508;13.422;2023-03-24T09:18:42;6.13;;;5.70;;
9392;SDS011;4736;52.508;13.422;2023-03-24T09:21:46;5.53;;;5.33;;
9392;SDS011;4736;52.508;13.422;2023-03-24T09:24:52;5.90;;;5.47;;
9392;SDS011;4736;52.508;13.422;2023-03-24T09:27:55;5.90;;;5.60;;
9392;SDS011;4736;52.508;13.422;2023-03-24T09:30:59;5.40;;;5.20;;
9392;SDS011;4736;52.508;13.422;2023-03-24T09:34:03;6.10;;;5.70;;
9392;SDS011;4736;52.508;13.422;2023-03-24T09:37:06;5.90;;;5.47;;
9392;SDS011;4736;52.508;13.422;2023-03-24T09:40:13;6.10;;;5.80;;
9392;SDS011;4736;52.508;13.422;2023-03-24T09:43:23;5.53;;;5.33;;
9392;SDS011;4736;52.508;13.422;2023-03-24T09:46:33;5.00;;;4.80;;
9392;SDS011;4736;52.508;13.422;2023-03-24T09:49:40;5.60;;;5.30;;
9392;SDS011;4736;52.508;13.422;2023-03-24T09:52:44;5.30;;;5.00;;
9392;SDS011;4736;52.508;13.422;2023-03-24T09:55:53;5.90;;;5.50;;
9392;SDS011;4736;52.508;13.422;2023-03-24T09:59:01;6.97;;;6.30;;
9392;SDS011;4736;52.508;13.422;2023-03-24T10:02:09;5.70;;;5.40;;
9392;SDS011;4736;52.508;13.422;2023-03-24T10:05:14;5.07;;;4.87;;
9392;SDS011;4736;52.508;13.422;2023-03-24T10:08:23;9.77;;;8.70;;
9392;SDS011;4736;52.508;13.422;2023-03-24T10:11:34;5.47;;;5.00;;
9392;SDS011;4736;52.508;13.422;2023-03-24T10:14:46;5.00;;;4.70;;
9392;SDS011;4736;52.508;13.422;2023-03-24T10:17:58;4.87;;;4.57;;
9392;SDS011;4736;52.508;13.422;2023-03-24T10:21:09;4.57;;;4.23;;
9392;SDS011;4736;52.508;13.422;2023-03-24T10:24:20;4.10;;;4.00;;
9392;SDS011;4736;52.508;13.422;2023-03-24T10:27:31;4.10;;;3.73;;
9392;SDS011;4736;52.508;13.422;2023-03-24T10:30:39;3.70;;;3.57;;
9392;SDS011;4736;52.508;13.422;2023-03-24T10:33:45;4.10;;;4.00;;
9392;SDS011;4736;52.508;13.422;2023-03-24T10:36:49;4.50;;;4.30;;
9392;SDS011;4736;52.508;13.422;2023-03-24T10:39:54;4.40;;;4.20;;
9392;SDS011;4736;52.508;13.422;2023-03-24T10:42:59;4.10;;;3.90;;
9392;SDS011;4736;52.508;13.422;2023-03-24T10:46:10;4.70;;;4.60;;
9392;SDS011;4736;52.508;13.422;2023-03-24T10:49:17;4.33;;;4.13;;
9392;SDS011;4736;52.508;13.422;2023-03-24T10:52:21;4.77;;;4.13;;
9392;SDS011;4736;52.508;13.422;2023-03-24T10:55:28;4.10;;;4.00;;
9392;SDS011;4736;52.508;13.422;2023-03-24T10:58:36;4.47;;;4.10;;
9392;SDS011;4736;52.508;13.422;2023-03-24T11:01:41;4.43;;;4.13;;
9392;SDS011;4736;52.508;13.422;2023-03-24T11:04:48;4.43;;;4.23;;
9392;SDS011;4736;52.508;13.422;2023-03-24T11:07:54;4.33;;;4.10;;
9392;SDS011;4736;52.508;13.422;2023-03-24T11:11:12;4.20;;;4.00;;
9392;SDS011;4736;52.508;13.422;2023-03-24T11:14:22;3.67;;;3.57;;
9392;SDS011;4736;52.508;13.422;2023-03-24T11:17:27;4.63;;;4.43;;
9392;SDS011;4736;52.508;13.422;2023-03-24T11:20:30;3.97;;;3.80;;
9392;SDS011;4736;52.508;13.422;2023-03-24T11:23:37;4.37;;;3.87;;
9392;SDS011;4736;52.508;13.422;2023-03-24T11:26:43;4.10;;;3.90;;
9392;SDS011;4736;52.508;13.422;2023-03-24T11:29:52;3.70;;;3.60;;
9392;SDS011;4736;52.508;13.422;2023-03-24T11:32:56;4.40;;;4.10;;
9392;SDS011;4736;52.508;13.422;2023-03-24T11:36:00;3.97;;;3.87;;
9392;SDS011;4736;52.508;13.422;2023-03-24T11:39:11;3.40;;;3.40;;
9392;SDS011;4736;52.508;13.422;2023-03-24T11:42:17;4.20;;;4.10;;
9392;SDS011;4736;52.508;13.422;2023-03-24T11:45:24;4.10;;;4.00;;
9392;SDS011;4736;52.508;13.422;2023-03-24T11:48:30;3.87;;;3.67;;
9392;SDS011;4736;52.508;13.422;2023-03-24T11:51:42;3.83;;;3.73;;
9392;SDS011;4736;52.508;13.422;2023-03-24T11:54:49;4.00;;;3.83;;
9392;SDS011;4736;52.508;13.422;2023-03-24T11:57:54;7.20;;;4.30;;
9392;SDS011;4736;52.508;13.422;2023-03-24T12:01:04;3.73;;;3.53;;
9392;SDS011;4736;52.508;13.422;2023-03-24T12:04:18;4.00;;;3.70;;
9392;SDS011;4736;52.508;13.422;2023-03-24T12:07:33;3.80;;;3.60;;
9392;SDS011;4736;52.508;13.422;2023-03-24T12:10:54;4.10;;;4.00;;
9392;SDS011;4736;52.508;13.422;2023-03-24T12:14:08;4.10;;;4.00;;
9392;SDS011;4736;52.508;13.422;2023-03-24T12:17:12;4.10;;;3.80;;
9392;SDS011;4736;52.508;13.422;2023-03-24T12:20:19;3.53;;;3.47;;
9392;SDS011;4736;52.508;13.422;2023-03-24T12:23:27;3.60;;;3.50;;
9392;SDS011;4736;52.508;13.422;2023-03-24T12:26:38;3.87;;;3.70;;
9392;SDS011;4736;52.508;13.422;2023-03-24T12:29:46;3.90;;;3.70;;
9392;SDS011;4736;52.508;13.422;2023-03-24T12:33:09;3.80;;;3.70;;
9392;SDS011;4736;52.508;13.422;2023-03-24T12:36:30;4.53;;;4.33;;
9392;SDS011;4736;52.508;13.422;2023-03-24T12:39:45;3.80;;;3.80;;
9392;SDS011;4736;52.508;13.422;2023-03-24T12:42:57;4.07;;;3.87;;
9392;SDS011;4736;52.508;13.422;2023-03-24T12:46:15;3.47;;;3.30;;
9392;SDS011;4736;52.508;13.422;2023-03-24T12:49:53;4.53;;;3.57;;
9392;SDS011;4736;52.508;13.422;2023-03-24T12:53:09;3.50;;;3.30;;
9392;SDS011;4736;52.508;13.422;2023-03-24T12:56:25;3.40;;;3.10;;
9392;SDS011;4736;52.508;13.422;2023-03-24T12:59:32;3.93;;;3.63;;
9392;SDS011;4736;52.508;13.422;2023-03-24T13:02:40;3.87;;;3.67;;
9392;SDS011;4736;52.508;13.422;2023-03-24T13:05:49;4.17;;;3.60;;
9392;SDS011;4736;52.508;13.422;2023-03-24T13:09:13;3.77;;;3.70;;
9392;SDS011;4736;52.508;13.422;2023-03-24T13:12:25;4.03;;;3.77;;
9392;SDS011;4736;52.508;13.422;2023-03-24T13:15:33;4.00;;;3.70;;
9392;SDS011;4736;52.508;13.422;2023-03-24T13:18:40;4.07;;;3.87;;
9392;SDS011;4736;52.508;13.422;2023-03-24T13:21:47;3.90;;;3.70;;
9392;SDS011;4736;52.508;13.422;2023-03-24T13:24:52;4.07;;;3.97;;
9392;SDS011;4736;52.508;13.422;2023-03-24T13:27:57;4.43;;;4.20;;
9392;SDS011;4736;52.508;13.422;2023-03-24T13:31:06;4.67;;;4.30;;
9392;SDS011;4736;52.508;13.422;2023-03-24T13:34:15;4.10;;;4.00;;
9392;SDS011;4736;52.508;13.422;2023-03-24T13:37:28;4.97;;;4.67;;
9392;SDS011;4736;52.508;13.422;2023-03-24T13:40:37;4.70;;;4.40;;
9392;SDS011;4736;52.508;13.422;2023-03-24T13:43:45;4.70;;;4.50;;
9392;SDS011;4736;52.508;13.422;2023-03-24T13:47:02;4.30;;;4.20;;
9392;SDS011;4736;52.508;13.422;2023-03-24T13:50:16;4.90;;;4.60;;
9392;SDS011;4736;52.508;13.422;2023-03-24T13:53:25;5.63;;;5.40;;
9392;SDS011;4736;52.508;13.422;2023-03-24T13:56:35;4.30;;;4.10;;
9392;SDS011;4736;52.508;13.422;2023-03-24T13:59:56;4.33;;;4.23;;
9392;SDS011;4736;52.508;13.422;2023-03-24T14:03:12;3.87;;;3.77;;
9392;SDS011;4736;52.508;13.422;2023-03-24T14:06:23;3.83;;;3.73;;
9392;SDS011;4736;52.508;13.422;2023-03-24T14:09:57;3.53;;;3.43;;
9392;SDS011;4736;52.508;13.422;2023-03-24T14:13:02;3.67;;;3.53;;
9392;SDS011;4736;52.508;13.422;2023-03-24T14:19:38;3.87;;;3.63;;
9392;SDS011;4736;52.508;13.422;2023-03-24T14:22:44;3.50;;;3.30;;
9392;SDS011;4736;52.508;13.422;2023-03-24T14:25:53;3.33;;;3.23;;
9392;SDS011;4736;52.508;13.422;2023-03-24T14:28:57;3.40;;;3.20;;
9392;SDS011;4736;52.508;13.422;2023-03-24T14:32:01;3.90;;;3.70;;
9392;SDS011;4736;52.508;13.422;2023-03-24T14:35:21;4.10;;;3.90;;
9392;SDS011;4736;52.508;13.422;2023-03-24T14:38:27;3.63;;;3.50;;
9392;SDS011;4736;52.508;13.422;2023-03-24T14:41:31;4.30;;;3.70;;
9392;SDS011;4736;52.508;13.422;2023-03-24T14:44:52;3.40;;;3.10;;
9392;SDS011;4736;52.508;13.422;2023-03-24T14:47:57;3.83;;;3.60;;
9392;SDS011;4736;52.508;13.422;2023-03-24T14:51:07;3.93;;;3.73;;
9392;SDS011;4736;52.508;13.422;2023-03-24T14:54:19;3.73;;;3.50;;
9392;SDS011;4736;52.508;13.422;2023-03-24T14:57:30;3.80;;;3.70;;
9392;SDS011;4736;52.508;13.422;2023-03-24T15:00:37;3.60;;;3.50;;
9392;SDS011;4736;52.508;13.422;2023-03-24T15:04:04;3.43;;;3.33;;
9392;SDS011;4736;52.508;13.422;2023-03-24T15:07:10;3.43;;;3.23;;
9392;SDS011;4736;52.508;13.422;2023-03-24T15:10:16;3.67;;;3.47;;
9392;SDS011;4736;52.508;13.422;2023-03-24T15:13:32;4.50;;;3.20;;
9392;SDS011;4736;52.508;13.422;2023-03-24T15:16:38;3.30;;;3.20;;
9392;SDS011;4736;52.508;13.422;2023-03-24T15:19:41;4.17;;;3.47;;
9392;SDS011;4736;52.508;13.422;2023-03-24T15:22:44;3.03;;;2.93;;
9392;SDS011;4736;52.508;13.422;2023-03-24T15:25:47;3.57;;;3.27;;
9392;SDS011;4736;52.508;13.422;2023-03-24T15:28:58;3.53;;;3.00;;
9392;SDS011;4736;52.508;13.422;2023-03-24T15:32:04;3.10;;;3.00;;
9392;SDS011;4736;52.508;13.422;2023-03-24T15:35:09;3.40;;;3.00;;
9392;SDS011;4736;52.508;13.422;2023-03-24T15:38:17;4.20;;;3.00;;
9392;SDS011;4736;52.508;13.422;2023-03-24T15:41:24;2.53;;;2.43;;
9392;SDS011;4736;52.508;13.422;2023-03-24T15:44:28;3.13;;;2.93;;
9392;SDS011;4736;52.508;13.422;2023-03-24T15:47:34;4.90;;;2.77;;
9392;SDS011;4736;52.508;13.422;2023-03-24T15:50:40;2.87;;;2.70;;
9392;SDS011;4736;52.508;13.422;2023-03-24T15:53:56;3.53;;;3.30;;
9392;SDS011;4736;52.508;13.422;2023-03-24T15:57:11;3.13;;;3.03;;
9392;SDS011;4736;52.508;13.422;2023-03-24T16:00:22;3.43;;;3.13;;
9392;SDS011;4736;52.508;13.422;2023-03-24T16:03:26;3.30;;;3.10;;
9392;SDS011;4736;52.508;13.422;2023-03-24T16:06:34;3.20;;;2.90;;
9392;SDS011;4736;52.508;13.422;2023-03-24T16:09:38;3.50;;;3.17;;
9392;SDS011;4736;52.508;13.422;2023-03-24T16:12:42;3.53;;;3.23;;
9392;SDS011;4736;52.508;13.422;2023-03-24T16:15:47;3.70;;;3.40;;
9392;SDS011;4736;52.508;13.422;2023-03-24T16:18:55;3.40;;;3.10;;
9392;SDS011;4736;52.508;13.422;2023-03-24T16:21:59;3.37;;;3.00;;
9392;SDS011;4736;52.508;13.422;2023-03-24T16:25:03;3.37;;;3.17;;
9392;SDS011;4736;52.508;13.422;2023-03-24T16:28:08;4.57;;;3.50;;
9392;SDS011;4736;52.508;13.422;2023-03-24T16:31:16;5.80;;;3.40;;
9392;SDS011;4736;52.508;13.422;2023-03-24T16:34:24;3.80;;;3.47;;
9392;SDS011;4736;52.508;13.422;2023-03-24T16:37:27;3.67;;;3.37;;
9392;SDS011;4736;52.508;13.422;2023-03-24T16:40:33;4.07;;;3.80;;
9392;SDS011;4736;52.508;13.422;2023-03-24T16:43:40;3.87;;;3.40;;
9392;SDS011;4736;52.508;13.422;2023-03-24T16:46:46;3.80;;;3.60;;
9392;SDS011;4736;52.508;13.422;2023-03-24T16:49:51;4.27;;;3.97;;
9392;SDS011;4736;52.508;13.422;2023-03-24T16:52:56;4.63;;;3.73;;
9392;SDS011;4736;52.508;13.422;2023-03-24T16:55:59;5.47;;;3.60;;
9392;SDS011;4736;52.508;13.422;2023-03-24T17:02:29;4.67;;;3.20;;
9392;SDS011;4736;52.508;13.422;2023-03-24T17:05:34;4.77;;;3.33;;
9392;SDS011;4736;52.508;13.422;2023-03-24T17:08:41;3.97;;;3.63;;
9392;SDS011;4736;52.508;13.422;2023-03-24T17:11:46;4.00;;;3.67;;
9392;SDS011;4736;52.508;13.422;2023-03-24T17:14:51;4.07;;;3.70;;
9392;SDS011;4736;52.508;13.422;2023-03-24T17:17:56;4.10;;;3.80;;
9392;SDS011;4736;52.508;13.422;2023-03-24T17:20:59;4.43;;;4.03;;
9392;SDS011;4736;52.508;13.422;2023-03-24T17:24:03;4.27;;;3.90;;
9392;SDS011;4736;52.508;13.422;2023-03-24T17:27:18;5.30;;;4.33;;
9392;SDS011;4736;52.508;13.422;2023-03-24T17:30:24;5.27;;;4.20;;
9392;SDS011;4736;52.508;13.422;2023-03-24T17:33:32;4.80;;;4.30;;
9392;SDS011;4736;52.508;13.422;2023-03-24T17:36:36;4.73;;;4.40;;
9392;SDS011;4736;52.508;13.422;2023-03-24T17:39:39;5.37;;;4.50;;
9392;SDS011;4736;52.508;13.422;2023-03-24T17:42:43;4.40;;;4.10;;
9392;SDS011;4736;52.508;13.422;2023-03-24T17:45:47;5.20;;;4.80;;
9392;SDS011;4736;52.508;13.422;2023-03-24T17:48:52;5.10;;;4.60;;
9392;SDS011;4736;52.508;13.422;2023-03-24T17:51:55;5.87;;;4.13;;
9392;SDS011;4736;52.508;13.422;2023-03-24T17:54:58;5.03;;;4.60;;
9392;SDS011;4736;52.508;13.422;2023-03-24T17:58:02;4.73;;;4.33;;
9392;SDS011;4736;52.508;13.422;2023-03-24T18:01:05;6.20;;;4.10;;
9392;SDS011;4736;52.508;13.422;2023-03-24T18:04:10;4.60;;;3.93;;
9392;SDS011;4736;52.508;13.422;2023-03-24T18:07:14;5.17;;;4.67;;
9392;SDS011;4736;52.508;13.422;2023-03-24T18:10:17;3.90;;;3.63;;
9392;SDS011;4736;52.508;13.422;2023-03-24T18:13:20;7.40;;;5.60;;
9392;SDS011;4736;52.508;13.422;2023-03-24T18:16:24;6.47;;;5.07;;
9392;SDS011;4736;52.508;13.422;2023-03-24T18:19:32;6.10;;;4.90;;
9392;SDS011;4736;52.508;13.422;2023-03-24T18:22:35;5.20;;;4.63;;
9392;SDS011;4736;52.508;13.422;2023-03-24T18:25:41;5.50;;;5.10;;
9392;SDS011;4736;52.508;13.422;2023-03-24T18:28:47;5.07;;;4.77;;
9392;SDS011;4736;52.508;13.422;2023-03-24T18:31:51;6.50;;;5.97;;
9392;SDS011;4736;52.508;13.422;2023-03-24T18:34:56;6.37;;;5.87;;
9392;SDS011;4736;52.508;13.422;2023-03-24T18:38:02;7.07;;;6.37;;
9392;SDS011;4736;52.508;13.422;2023-03-24T18:41:06;5.87;;;5.37;;
9392;SDS011;4736;52.508;13.422;2023-03-24T18:44:13;5.90;;;5.40;;
9392;SDS011;4736;52.508;13.422;2023-03-24T18:47:16;6.50;;;5.97;;
9392;SDS011;4736;52.508;13.422;2023-03-24T18:50:21;7.70;;;7.00;;
9392;SDS011;4736;52.508;13.422;2023-03-24T18:53:24;7.40;;;6.77;;
9392;SDS011;4736;52.508;13.422;2023-03-24T18:56:28;8.73;;;7.57;;
9392;SDS011;4736;52.508;13.422;2023-03-24T18:59:31;7.73;;;7.13;;
9392;SDS011;4736;52.508;13.422;2023-03-24T19:02:34;7.70;;;7.00;;
9392;SDS011;4736;52.508;13.422;2023-03-24T19:05:40;11.23;;;8.43;;
9392;SDS011;4736;52.508;13.422;2023-03-24T19:08:44;12.27;;;11.00;;
9392;SDS011;4736;52.508;13.422;2023-03-24T19:11:51;10.80;;;9.40;;
9392;SDS011;4736;52.508;13.422;2023-03-24T19:14:54;8.77;;;7.83;;
9392;SDS011;4736;52.508;13.422;2023-03-24T19:17:57;8.57;;;7.67;;
9392;SDS011;4736;52.508;13.422;2023-03-24T19:21:05;7.70;;;7.00;;
9392;SDS011;4736;52.508;13.422;2023-03-24T19:24:09;8.23;;;7.47;;